sensor_id;sensor_type;location;lat;lon;timestamp;pressure;altitude;pressure_sealevel;temperature;humidity
9969;BME280;5025;48.890;9.278;2023-05-16T00:00:50;98476.41;;;13.02;76.79
9969;BME280;5025;48.890;9.278;2023-05-16T00:03:17;98471.75;;;12.98;76.73
9969;BME280;5025;48.890;9.278;2023-05-16T00:05:43;98468.72;;;12.94;76.93
9969;BME280;5025;48.890;9.278;2023-05-16T00:08:08;98464.63;;;12.91;76.64
9969;BME280;5025;48.890;9.278;2023-05-16T00:10:34;98458.34;;;12.86;76.79
9969;BME280;5025;48.890;9.278;2023-05-16T00:12:59;98455.28;;;12.82;76.84
9969;BME280;5025;48.890;9.278;2023-05-16T00:15:26;98459.91;;;12.82;76.97
9969;BME280;5025;48.890;9.278;2023-05-16T00:17:53;98455.47;;;12.76;76.95
9969;BME280;5025;48.890;9.278;2023-05-16T00:20:23;98455.47;;;12.76;77.06
9969;BME280;5025;48.890;9.278;2023-05-16T00:22:49;98460.91;;;12.76;77.10
9969;BME280;5025;48.890;9.278;2023-05-16T00:25:14;98457.38;;;12.75;76.90
9969;BME280;5025;48.890;9.278;2023-05-16T00:27:40;98454.69;;;12.75;77.07
9969;BME280;5025;48.890;9.278;2023-05-16T00:30:05;98452.22;;;12.73;77.00
9969;BME280;5025;48.890;9.278;2023-05-16T00:32:31;98448.41;;;12.74;77.33
9969;BME280;5025;48.890;9.278;2023-05-16T00:34:56;98450.06;;;12.76;77.20
9969;BME280;5025;48.890;9.278;2023-05-16T00:37:22;98453.34;;;12.78;77.39
9969;BME280;5025;48.890;9.278;2023-05-16T00:39:47;98455.47;;;12.76;77.24
9969;BME280;5025;48.890;9.278;2023-05-16T00:42:12;98450.31;;;12.74;77.29
9969;BME280;5025;48.890;9.278;2023-05-16T00:44:38;98440.72;;;12.66;77.47
9969;BME280;5025;48.890;9.278;2023-05-16T00:47:03;98448.84;;;12.66;77.72
9969;BME280;5025;48.890;9.278;2023-05-16T00:49:29;98449.59;;;12.62;77.65
9969;BME280;5025;48.890;9.278;2023-05-16T00:51:55;98446.91;;;12.62;78.01
9969;BME280;5025;48.890;9.278;2023-05-16T00:54:22;98447.47;;;12.64;77.75
9969;BME280;5025;48.890;9.278;2023-05-16T00:56:48;98447.41;;;12.59;78.06
9969;BME280;5025;48.890;9.278;2023-05-16T00:59:13;98443.88;;;12.58;78.06
9969;BME280;5025;48.890;9.278;2023-05-16T01:01:40;98451.41;;;12.56;78.15
9969;BME280;5025;48.890;9.278;2023-05-16T01:04:06;98453.31;;;12.55;78.25
9969;BME280;5025;48.890;9.278;2023-05-16T01:06:32;98456.28;;;12.54;78.61
9969;BME280;5025;48.890;9.278;2023-05-16T01:08:58;98465.22;;;12.54;78.51
9969;BME280;5025;48.890;9.278;2023-05-16T01:11:35;98458.19;;;12.53;78.38
9969;BME280;5025;48.890;9.278;2023-05-16T01:14:58;98460.03;;;12.53;78.41
9969;BME280;5025;48.890;9.278;2023-05-16T01:17:28;98454.88;;;12.51;78.68
9969;BME280;5025;48.890;9.278;2023-05-16T01:25:32;98449.50;;;12.34;78.66
9969;BME280;5025;48.890;9.278;2023-05-16T01:28:01;98447.47;;;12.25;78.88
9969;BME280;5025;48.890;9.278;2023-05-16T01:30:32;98450.41;;;12.23;79.20
9969;BME280;5025;48.890;9.278;2023-05-16T01:32:57;98451.47;;;12.22;79.01
9969;BME280;5025;48.890;9.278;2023-05-16T01:35:23;98449.00;;;12.20;78.88
9969;BME280;5025;48.890;9.278;2023-05-16T01:38:15;98454.91;;;12.17;79.22
9969;BME280;5025;48.890;9.278;2023-05-16T01:40:59;98460.09;;;12.19;79.45
9969;BME280;5025;48.890;9.278;2023-05-16T01:43:36;98464.44;;;12.20;79.51
9969;BME280;5025;48.890;9.278;2023-05-16T01:46:09;98456.88;;;12.22;79.44
9969;BME280;5025;48.890;9.278;2023-05-16T01:48:48;98451.47;;;12.22;79.43
9969;BME280;5025;48.890;9.278;2023-05-16T01:51:16;98462.31;;;12.22;79.42
9969;BME280;5025;48.890;9.278;2023-05-16T01:53:42;98459.03;;;12.20;79.51
9969;BME280;5025;48.890;9.278;2023-05-16T01:56:14;98455.16;;;12.16;79.59
9969;BME280;5025;48.890;9.278;2023-05-16T01:58:40;98464.13;;;12.16;79.55
9969;BME280;5025;48.890;9.278;2023-05-16T02:01:05;98457.56;;;12.12;79.66
9969;BME280;5025;48.890;9.278;2023-05-16T02:03:31;98456.50;;;12.13;79.74
9969;BME280;5025;48.890;9.278;2023-05-16T02:05:57;98456.75;;;12.12;79.73
9969;BME280;5025;48.890;9.278;2023-05-16T02:08:23;98462.66;;;12.09;79.54
9969;BME280;5025;48.890;9.278;2023-05-16T02:10:49;98451.25;;;12.07;79.69
9969;BME280;5025;48.890;9.278;2023-05-16T02:13:14;98460.44;;;12.06;79.65
9969;BME280;5025;48.890;9.278;2023-05-16T02:15:39;98463.63;;;12.02;79.86
9969;BME280;5025;48.890;9.278;2023-05-16T02:18:05;98458.22;;;12.02;79.90
9969;BME280;5025;48.890;9.278;2023-05-16T02:20:30;98451.66;;;11.98;79.91
9969;BME280;5025;48.890;9.278;2023-05-16T02:22:55;98459.78;;;11.98;80.00
9969;BME280;5025;48.890;9.278;2023-05-16T02:25:21;98460.03;;;11.97;79.96
9969;BME280;5025;48.890;9.278;2023-05-16T02:27:46;98459.47;;;11.95;80.01
9969;BME280;5025;48.890;9.278;2023-05-16T02:30:11;98462.41;;;11.93;80.06
9969;BME280;5025;48.890;9.278;2023-05-16T02:32:38;98463.22;;;11.94;79.92
9969;BME280;5025;48.890;9.278;2023-05-16T02:35:04;98456.38;;;11.91;80.04
9969;BME280;5025;48.890;9.278;2023-05-16T02:37:29;98460.16;;;11.90;80.19
9969;BME280;5025;48.890;9.278;2023-05-16T02:39:54;98467.69;;;11.88;80.31
9969;BME280;5025;48.890;9.278;2023-05-16T02:42:19;98465.50;;;11.85;80.39
9969;BME280;5025;48.890;9.278;2023-05-16T02:44:45;98457.63;;;11.83;80.07
9969;BME280;5025;48.890;9.278;2023-05-16T02:47:10;98462.78;;;11.85;80.13
9969;BME280;5025;48.890;9.278;2023-05-16T02:49:35;98460.56;;;11.82;80.17
9969;BME280;5025;48.890;9.278;2023-05-16T02:52:00;98467.53;;;11.78;80.31
9969;BME280;5025;48.890;9.278;2023-05-16T02:54:26;98472.94;;;11.78;80.40
9969;BME280;5025;48.890;9.278;2023-05-16T02:56:51;98469.66;;;11.76;80.35
9969;BME280;5025;48.890;9.278;2023-05-16T02:59:16;98474.47;;;11.74;80.55
9969;BME280;5025;48.890;9.278;2023-05-16T03:01:42;98470.66;;;11.70;80.38
9969;BME280;5025;48.890;9.278;2023-05-16T03:04:07;98470.66;;;11.70;80.56
9969;BME280;5025;48.890;9.278;2023-05-16T03:06:32;98473.34;;;11.70;80.53
9969;BME280;5025;48.890;9.278;2023-05-16T03:08:57;98474.97;;;11.71;80.60
9969;BME280;5025;48.890;9.278;2023-05-16T03:11:23;98468.25;;;11.73;80.42
9969;BME280;5025;48.890;9.278;2023-05-16T03:13:49;98469.00;;;11.69;80.50
9969;BME280;5025;48.890;9.278;2023-05-16T03:16:15;98471.69;;;11.69;80.56
9969;BME280;5025;48.890;9.278;2023-05-16T03:18:41;98475.47;;;11.68;80.65
9969;BME280;5025;48.890;9.278;2023-05-16T03:21:06;98468.66;;;11.65;80.54
9969;BME280;5025;48.890;9.278;2023-05-16T03:23:31;98479.97;;;11.62;80.89
9969;BME280;5025;48.890;9.278;2023-05-16T03:25:57;98471.03;;;11.61;80.92
9969;BME280;5025;48.890;9.278;2023-05-16T03:28:22;98469.41;;;11.60;81.01
9969;BME280;5025;48.890;9.278;2023-05-16T03:30:47;98470.78;;;11.63;81.22
9969;BME280;5025;48.890;9.278;2023-05-16T03:33:13;98472.19;;;11.65;81.15
9969;BME280;5025;48.890;9.278;2023-05-16T03:35:38;98476.28;;;11.68;80.93
9969;BME280;5025;48.890;9.278;2023-05-16T03:38:04;98468.50;;;11.72;81.29
9969;BME280;5025;48.890;9.278;2023-05-16T03:40:29;98468.50;;;11.72;81.23
9969;BME280;5025;48.890;9.278;2023-05-16T03:42:55;98471.78;;;11.74;81.32
9969;BME280;5025;48.890;9.278;2023-05-16T03:45:20;98468.00;;;11.75;81.42
9969;BME280;5025;48.890;9.278;2023-05-16T03:47:48;98475.06;;;11.76;81.45
9969;BME280;5025;48.890;9.278;2023-05-16T03:50:13;98478.34;;;11.78;81.60
9969;BME280;5025;48.890;9.278;2023-05-16T03:52:38;98477.88;;;11.81;81.65
9969;BME280;5025;48.890;9.278;2023-05-16T03:55:04;98478.91;;;11.80;81.83
9969;BME280;5025;48.890;9.278;2023-05-16T03:57:31;98475.72;;;11.83;81.72
9969;BME280;5025;48.890;9.278;2023-05-16T03:59:56;98475.72;;;11.83;81.75
9969;BME280;5025;48.890;9.278;2023-05-16T04:02:22;98477.88;;;11.81;82.19
9969;BME280;5025;48.890;9.278;2023-05-16T04:04:47;98486.53;;;11.83;82.12
9969;BME280;5025;48.890;9.278;2023-05-16T04:07:12;98486.53;;;11.83;82.24
9969;BME280;5025;48.890;9.278;2023-05-16T04:09:37;98491.16;;;11.82;82.10
9969;BME280;5025;48.890;9.278;2023-05-16T04:12:03;98490.34;;;11.82;82.48
9969;BME280;5025;48.890;9.278;2023-05-16T04:14:28;98491.38;;;11.81;82.41
9969;BME280;5025;48.890;9.278;2023-05-16T04:16:54;98497.03;;;11.79;82.74
9969;BME280;5025;48.890;9.278;2023-05-16T04:19:19;98494.66;;;11.83;82.50
9969;BME280;5025;48.890;9.278;2023-05-16T04:21:44;98499.81;;;11.84;82.77
9969;BME280;5025;48.890;9.278;2023-05-16T04:24:10;98491.72;;;11.84;82.75
9969;BME280;5025;48.890;9.278;2023-05-16T04:26:35;98498.53;;;11.87;83.04
9969;BME280;5025;48.890;9.278;2023-05-16T04:29:04;98498.63;;;11.92;82.95
9969;BME280;5025;48.890;9.278;2023-05-16T04:31:30;98510.88;;;11.95;83.03
9969;BME280;5025;48.890;9.278;2023-05-16T04:33:55;98508.72;;;11.97;83.23
9969;BME280;5025;48.890;9.278;2023-05-16T04:36:22;98515.56;;;11.99;83.08
9969;BME280;5025;48.890;9.278;2023-05-16T04:38:47;98518.25;;;11.99;82.73
9969;BME280;5025;48.890;9.278;2023-05-16T04:41:12;98511.69;;;11.95;83.26
9969;BME280;5025;48.890;9.278;2023-05-16T04:43:38;98509.91;;;11.89;83.42
9969;BME280;5025;48.890;9.278;2023-05-16T04:46:04;98510.66;;;11.84;83.68
9969;BME280;5025;48.890;9.278;2023-05-16T04:48:31;98512.78;;;11.82;83.59
9969;BME280;5025;48.890;9.278;2023-05-16T04:50:57;98515.75;;;11.81;83.72
9969;BME280;5025;48.890;9.278;2023-05-16T04:53:22;98519.84;;;11.83;83.85
9969;BME280;5025;48.890;9.278;2023-05-16T04:55:47;98519.84;;;11.83;83.83
9969;BME280;5025;48.890;9.278;2023-05-16T04:58:13;98521.22;;;11.86;83.58
9969;BME280;5025;48.890;9.278;2023-05-16T05:00:38;98523.44;;;11.89;83.70
9969;BME280;5025;48.890;9.278;2023-05-16T05:03:03;98524.84;;;11.92;83.75
9969;BME280;5025;48.890;9.278;2023-05-16T05:05:29;98527.91;;;11.95;83.90
9969;BME280;5025;48.890;9.278;2023-05-16T05:07:54;98522.81;;;11.99;83.83
9969;BME280;5025;48.890;9.278;2023-05-16T05:10:19;98532.69;;;12.05;83.93
9969;BME280;5025;48.890;9.278;2023-05-16T05:12:44;98543.00;;;12.08;83.95
9969;BME280;5025;48.890;9.278;2023-05-16T05:15:10;98533.34;;;12.12;84.08
9969;BME280;5025;48.890;9.278;2023-05-16T05:17:35;98537.22;;;12.16;84.16
9969;BME280;5025;48.890;9.278;2023-05-16T05:20:02;98536.72;;;12.19;84.07
9969;BME280;5025;48.890;9.278;2023-05-16T05:22:31;98538.09;;;12.22;84.37
9969;BME280;5025;48.890;9.278;2023-05-16T05:24:56;98541.16;;;12.26;84.19
9969;BME280;5025;48.890;9.278;2023-05-16T05:27:21;98531.72;;;12.28;84.37
9969;BME280;5025;48.890;9.278;2023-05-16T05:29:46;98530.66;;;12.29;84.60
9969;BME280;5025;48.890;9.278;2023-05-16T05:32:12;98535.56;;;12.32;84.54
9969;BME280;5025;48.890;9.278;2023-05-16T05:34:37;98528.75;;;12.30;84.81
9969;BME280;5025;48.890;9.278;2023-05-16T05:37:03;98529.09;;;12.33;84.79
9969;BME280;5025;48.890;9.278;2023-05-16T05:39:28;98529.09;;;12.33;84.93
9969;BME280;5025;48.890;9.278;2023-05-16T05:41:53;98522.84;;;12.33;85.08
9969;BME280;5025;48.890;9.278;2023-05-16T05:44:18;98526.88;;;12.30;85.30
9969;BME280;5025;48.890;9.278;2023-05-16T05:46:44;98527.88;;;12.24;85.51
9969;BME280;5025;48.890;9.278;2023-05-16T05:49:09;98529.72;;;12.24;85.54
9969;BME280;5025;48.890;9.278;2023-05-16T05:51:34;98536.56;;;12.26;85.73
9969;BME280;5025;48.890;9.278;2023-05-16T05:54:01;98522.53;;;12.29;85.92
9969;BME280;5025;48.890;9.278;2023-05-16T05:56:26;98535.09;;;12.35;85.74
9969;BME280;5025;48.890;9.278;2023-05-16T05:58:51;98540.00;;;12.38;86.00
9969;BME280;5025;48.890;9.278;2023-05-16T06:01:17;98548.44;;;12.42;85.85
9969;BME280;5025;48.890;9.278;2023-05-16T06:03:42;98552.56;;;12.45;85.71
9969;BME280;5025;48.890;9.278;2023-05-16T06:06:08;98555.59;;;12.48;86.10
9969;BME280;5025;48.890;9.278;2023-05-16T06:08:33;98556.75;;;12.52;86.32
9969;BME280;5025;48.890;9.278;2023-05-16T06:10:59;98559.75;;;12.56;85.94
9969;BME280;5025;48.890;9.278;2023-05-16T06:13:25;98559.28;;;12.59;85.99
9969;BME280;5025;48.890;9.278;2023-05-16T06:15:51;98557.97;;;12.62;86.05
9969;BME280;5025;48.890;9.278;2023-05-16T06:18:16;98559.13;;;12.66;85.93
9969;BME280;5025;48.890;9.278;2023-05-16T06:20:41;98555.31;;;12.67;86.08
9969;BME280;5025;48.890;9.278;2023-05-16T06:23:07;98558.13;;;12.72;86.37
9969;BME280;5025;48.890;9.278;2023-05-16T06:25:32;98558.19;;;12.77;86.16
9969;BME280;5025;48.890;9.278;2023-05-16T06:27:57;98551.47;;;12.80;86.16
9969;BME280;5025;48.890;9.278;2023-05-16T06:30:22;98562.94;;;12.87;86.20
9969;BME280;5025;48.890;9.278;2023-05-16T06:32:48;98562.53;;;12.95;86.26
9969;BME280;5025;48.890;9.278;2023-05-16T06:35:13;98569.06;;;12.99;86.08
9969;BME280;5025;48.890;9.278;2023-05-16T06:37:38;98568.56;;;13.02;85.98
9969;BME280;5025;48.890;9.278;2023-05-16T06:40:04;98578.66;;;13.07;85.97
9969;BME280;5025;48.890;9.278;2023-05-16T06:42:30;98573.59;;;13.11;85.98
9969;BME280;5025;48.890;9.278;2023-05-16T06:44:55;98574.16;;;13.13;85.87
9969;BME280;5025;48.890;9.278;2023-05-16T06:47:20;98572.00;;;13.15;86.06
9969;BME280;5025;48.890;9.278;2023-05-16T06:49:45;98575.28;;;13.17;85.92
9969;BME280;5025;48.890;9.278;2023-05-16T06:52:11;98576.09;;;13.17;85.96
9969;BME280;5025;48.890;9.278;2023-05-16T06:54:36;98576.16;;;13.22;86.03
9969;BME280;5025;48.890;9.278;2023-05-16T06:57:02;98572.13;;;13.25;85.73
9969;BME280;5025;48.890;9.278;2023-05-16T06:59:28;98569.16;;;13.26;85.92
9969;BME280;5025;48.890;9.278;2023-05-16T07:01:53;98571.63;;;13.28;85.84
9969;BME280;5025;48.890;9.278;2023-05-16T07:04:18;98582.78;;;13.32;85.78
9969;BME280;5025;48.890;9.278;2023-05-16T07:06:44;98575.00;;;13.35;85.44
9969;BME280;5025;48.890;9.278;2023-05-16T07:09:09;98581.50;;;13.34;85.68
9969;BME280;5025;48.890;9.278;2023-05-16T07:11:35;98586.44;;;13.37;85.63
9969;BME280;5025;48.890;9.278;2023-05-16T07:14:00;98582.63;;;13.38;85.49
9969;BME280;5025;48.890;9.278;2023-05-16T07:16:25;98588.38;;;13.42;85.57
9969;BME280;5025;48.890;9.278;2023-05-16T07:18:52;98591.41;;;13.45;85.54
9969;BME280;5025;48.890;9.278;2023-05-16T07:21:18;98588.69;;;13.45;85.37
9969;BME280;5025;48.890;9.278;2023-05-16T07:23:43;98583.81;;;13.48;85.32
9969;BME280;5025;48.890;9.278;2023-05-16T07:26:08;98584.91;;;13.47;85.10
9969;BME280;5025;48.890;9.278;2023-05-16T07:28:33;98588.06;;;13.38;84.76
9969;BME280;5025;48.890;9.278;2023-05-16T07:30:59;98599.41;;;13.35;84.85
9969;BME280;5025;48.890;9.278;2023-05-16T07:33:24;98597.78;;;13.34;85.12
9969;BME280;5025;48.890;9.278;2023-05-16T07:35:51;98595.16;;;13.22;85.14
9969;BME280;5025;48.890;9.278;2023-05-16T07:38:18;98596.97;;;13.17;84.92
9969;BME280;5025;48.890;9.278;2023-05-16T07:40:43;98606.38;;;13.09;84.89
9969;BME280;5025;48.890;9.278;2023-05-16T07:43:08;98601.25;;;13.13;85.03
9969;BME280;5025;48.890;9.278;2023-05-16T07:45:33;98603.97;;;13.13;84.87
9969;BME280;5025;48.890;9.278;2023-05-16T07:47:59;98600.75;;;13.16;84.87
9969;BME280;5025;48.890;9.278;2023-05-16T07:50:24;98602.66;;;13.15;84.69
9969;BME280;5025;48.890;9.278;2023-05-16T07:52:49;98601.56;;;13.16;84.68
9969;BME280;5025;48.890;9.278;2023-05-16T07:55:15;98609.50;;;13.23;84.53
9969;BME280;5025;48.890;9.278;2023-05-16T07:57:40;98605.44;;;13.20;84.60
9969;BME280;5025;48.890;9.278;2023-05-16T08:00:08;98612.41;;;13.16;84.48
9969;BME280;5025;48.890;9.278;2023-05-16T08:02:33;98618.25;;;13.25;84.30
9969;BME280;5025;48.890;9.278;2023-05-16T08:04:58;98616.97;;;13.33;84.07
9969;BME280;5025;48.890;9.278;2023-05-16T08:07:24;98614.53;;;13.31;83.57
9969;BME280;5025;48.890;9.278;2023-05-16T08:09:49;98617.81;;;13.33;83.38
9969;BME280;5025;48.890;9.278;2023-05-16T08:12:15;98615.13;;;13.33;83.26
9969;BME280;5025;48.890;9.278;2023-05-16T08:14:40;98615.16;;;13.38;83.14
9969;BME280;5025;48.890;9.278;2023-05-16T08:17:05;98623.16;;;13.45;82.59
9969;BME280;5025;48.890;9.278;2023-05-16T08:19:31;98617.97;;;13.43;82.52
9969;BME280;5025;48.890;9.278;2023-05-16T08:21:57;98623.69;;;13.47;82.41
9969;BME280;5025;48.890;9.278;2023-05-16T08:24:23;98631.34;;;13.50;82.30
9969;BME280;5025;48.890;9.278;2023-05-16T08:26:48;98636.25;;;13.53;82.32
9969;BME280;5025;48.890;9.278;2023-05-16T08:29:14;98636.25;;;13.53;82.08
9969;BME280;5025;48.890;9.278;2023-05-16T08:31:39;98631.59;;;13.49;82.01
9969;BME280;5025;48.890;9.278;2023-05-16T08:34:04;98635.38;;;13.48;81.64
9969;BME280;5025;48.890;9.278;2023-05-16T08:36:30;98635.88;;;13.44;81.79
9969;BME280;5025;48.890;9.278;2023-05-16T08:38:58;98636.13;;;13.43;81.66
9969;BME280;5025;48.890;9.278;2023-05-16T08:41:24;98633.16;;;13.44;81.61
9969;BME280;5025;48.890;9.278;2023-05-16T08:43:50;98638.31;;;13.46;81.44
9969;BME280;5025;48.890;9.278;2023-05-16T08:46:17;98642.94;;;13.45;81.31
9969;BME280;5025;48.890;9.278;2023-05-16T08:48:46;98648.13;;;13.47;81.19
9969;BME280;5025;48.890;9.278;2023-05-16T08:51:16;98640.22;;;13.45;81.11
9969;BME280;5025;48.890;9.278;2023-05-16T08:53:44;98632.34;;;13.44;81.19
9969;BME280;5025;48.890;9.278;2023-05-16T08:56:15;98652.41;;;13.43;81.10
9969;BME280;5025;48.890;9.278;2023-05-16T08:58:41;98649.13;;;13.41;81.02
9969;BME280;5025;48.890;9.278;2023-05-16T09:01:06;98648.88;;;13.42;80.88
9969;BME280;5025;48.890;9.278;2023-05-16T09:03:37;98646.72;;;13.44;80.78
9969;BME280;5025;48.890;9.278;2023-05-16T09:06:06;98651.09;;;13.45;80.89
9969;BME280;5025;48.890;9.278;2023-05-16T09:08:31;98652.41;;;13.43;80.85
9969;BME280;5025;48.890;9.278;2023-05-16T09:10:57;98659.72;;;13.42;80.83
9969;BME280;5025;48.890;9.278;2023-05-16T09:13:23;98665.16;;;13.42;80.78
9969;BME280;5025;48.890;9.278;2023-05-16T09:16:12;98660.78;;;13.41;80.86
9969;BME280;5025;48.890;9.278;2023-05-16T09:18:39;98655.34;;;13.41;80.60
9969;BME280;5025;48.890;9.278;2023-05-16T09:21:05;98660.53;;;13.43;80.59
9969;BME280;5025;48.890;9.278;2023-05-16T09:23:32;98655.09;;;13.43;80.64
9969;BME280;5025;48.890;9.278;2023-05-16T09:25:58;98654.84;;;13.44;80.77
9969;BME280;5025;48.890;9.278;2023-05-16T09:28:25;98656.75;;;13.44;80.61
9969;BME280;5025;48.890;9.278;2023-05-16T09:30:52;98656.50;;;13.45;80.54
9969;BME280;5025;48.890;9.278;2023-05-16T09:33:21;98655.44;;;13.47;80.66
9969;BME280;5025;48.890;9.278;2023-05-16T09:35:46;98660.63;;;13.48;80.57
9969;BME280;5025;48.890;9.278;2023-05-16T09:38:18;98658.72;;;13.49;80.54
9969;BME280;5025;48.890;9.278;2023-05-16T09:40:44;98660.63;;;13.48;80.40
9969;BME280;5025;48.890;9.278;2023-05-16T09:43:14;98658.72;;;13.49;80.40
9969;BME280;5025;48.890;9.278;2023-05-16T09:45:44;98655.19;;;13.48;80.55
9969;BME280;5025;48.890;9.278;2023-05-16T09:48:10;98656.00;;;13.49;80.38
9969;BME280;5025;48.890;9.278;2023-05-16T09:50:37;98647.88;;;13.49;80.48
9969;BME280;5025;48.890;9.278;2023-05-16T09:53:03;98652.22;;;13.50;80.51
9969;BME280;5025;48.890;9.278;2023-05-16T09:55:29;98654.94;;;13.50;80.49
9969;BME280;5025;48.890;9.278;2023-05-16T09:57:54;98652.78;;;13.52;80.44
9969;BME280;5025;48.890;9.278;2023-05-16T10:00:20;98656.66;;;13.56;80.46
9969;BME280;5025;48.890;9.278;2023-05-16T10:02:49;98659.13;;;13.57;80.51
9969;BME280;5025;48.890;9.278;2023-05-16T10:05:15;98657.78;;;13.60;80.49
9969;BME280;5025;48.890;9.278;2023-05-16T10:07:42;98653.75;;;13.62;80.43
9969;BME280;5025;48.890;9.278;2023-05-16T10:10:08;98651.59;;;13.65;80.59
9969;BME280;5025;48.890;9.278;2023-05-16T10:12:35;98650.84;;;13.69;80.61
9969;BME280;5025;48.890;9.278;2023-05-16T10:15:03;98651.16;;;13.73;80.59
9969;BME280;5025;48.890;9.278;2023-05-16T10:17:30;98644.97;;;13.77;80.54
9969;BME280;5025;48.890;9.278;2023-05-16T10:20:04;98649.66;;;13.82;80.54
9969;BME280;5025;48.890;9.278;2023-05-16T10:22:33;98644.28;;;13.87;80.43
9969;BME280;5025;48.890;9.278;2023-05-16T10:25:07;98635.13;;;13.93;80.51
9969;BME280;5025;48.890;9.278;2023-05-16T10:27:33;98639.78;;;13.98;80.50
9969;BME280;5025;48.890;9.278;2023-05-16T10:30:00;98641.72;;;14.03;80.40
9969;BME280;5025;48.890;9.278;2023-05-16T10:32:26;98655.06;;;14.04;80.43
9969;BME280;5025;48.890;9.278;2023-05-16T10:34:53;98655.34;;;14.08;80.45
9969;BME280;5025;48.890;9.278;2023-05-16T10:37:21;98647.22;;;14.08;80.23
9969;BME280;5025;48.890;9.278;2023-05-16T10:39:47;98650.75;;;14.08;80.18
9969;BME280;5025;48.890;9.278;2023-05-16T10:42:12;98643.69;;;14.07;80.19
9969;BME280;5025;48.890;9.278;2023-05-16T10:44:42;98642.88;;;14.07;79.99
9969;BME280;5025;48.890;9.278;2023-05-16T10:47:07;98646.66;;;14.06;79.91
9969;BME280;5025;48.890;9.278;2023-05-16T10:49:32;98648.56;;;14.05;80.03
9969;BME280;5025;48.890;9.278;2023-05-16T10:52:15;98649.63;;;14.04;79.77
9969;BME280;5025;48.890;9.278;2023-05-16T10:54:48;98650.13;;;14.01;79.75
9969;BME280;5025;48.890;9.278;2023-05-16T10:57:16;98648.19;;;13.96;79.75
9969;BME280;5025;48.890;9.278;2023-05-16T10:59:45;98652.22;;;13.94;79.87
9969;BME280;5025;48.890;9.278;2023-05-16T11:04:50;98651.59;;;13.87;79.83
9969;BME280;5025;48.890;9.278;2023-05-16T11:07:18;98650.97;;;13.79;79.96
9969;BME280;5025;48.890;9.278;2023-05-16T11:09:44;98655.19;;;13.70;80.25
9969;BME280;5025;48.890;9.278;2023-05-16T11:12:11;98659.47;;;13.66;80.22
9969;BME280;5025;48.890;9.278;2023-05-16T11:14:39;98657.78;;;13.60;80.32
9969;BME280;5025;48.890;9.278;2023-05-16T11:24:33;98669.56;;;13.49;80.45
9969;BME280;5025;48.890;9.278;2023-05-16T11:27:00;98674.44;;;13.47;80.46
9969;BME280;5025;48.890;9.278;2023-05-16T11:29:27;98667.59;;;13.44;80.78
9969;BME280;5025;48.890;9.278;2023-05-16T11:31:52;98680.34;;;13.43;80.61
9969;BME280;5025;48.890;9.278;2023-05-16T11:34:18;98686.84;;;13.42;80.64
9969;BME280;5025;48.890;9.278;2023-05-16T11:36:43;98680.53;;;13.37;80.84
9969;BME280;5025;48.890;9.278;2023-05-16T11:39:09;98679.97;;;13.35;80.79
9969;BME280;5025;48.890;9.278;2023-05-16T11:41:34;98687.66;;;13.26;80.85
9969;BME280;5025;48.890;9.278;2023-05-16T11:44:00;98686.59;;;13.27;80.74
9969;BME280;5025;48.890;9.278;2023-05-16T11:46:25;98691.22;;;13.26;80.87
9969;BME280;5025;48.890;9.278;2023-05-16T11:48:52;98686.84;;;13.25;80.93
9969;BME280;5025;48.890;9.278;2023-05-16T11:51:18;98688.25;;;13.28;80.94
9969;BME280;5025;48.890;9.278;2023-05-16T11:53:46;98692.34;;;13.31;80.76
9969;BME280;5025;48.890;9.278;2023-05-16T11:56:13;98693.75;;;13.33;80.65
9969;BME280;5025;48.890;9.278;2023-05-16T11:58:38;98700.84;;;13.34;80.66
9969;BME280;5025;48.890;9.278;2023-05-16T12:01:03;98701.66;;;13.35;80.66
9969;BME280;5025;48.890;9.278;2023-05-16T12:03:29;98706.59;;;13.38;80.54
9969;BME280;5025;48.890;9.278;2023-05-16T12:05:57;98699.25;;;13.38;80.66
9969;BME280;5025;48.890;9.278;2023-05-16T12:08:23;98714.47;;;13.39;80.65
9969;BME280;5025;48.890;9.278;2023-05-16T12:10:52;98709.84;;;13.40;80.61
9969;BME280;5025;48.890;9.278;2023-05-16T12:13:19;98711.00;;;13.44;80.35
9969;BME280;5025;48.890;9.278;2023-05-16T12:15:46;98707.50;;;13.43;80.44
9969;BME280;5025;48.890;9.278;2023-05-16T12:18:11;98712.06;;;13.43;80.21
9969;BME280;5025;48.890;9.278;2023-05-16T12:20:37;98713.72;;;13.44;80.15
9969;BME280;5025;48.890;9.278;2023-05-16T12:23:03;98711.81;;;13.44;80.00
9969;BME280;5025;48.890;9.278;2023-05-16T12:25:33;98718.91;;;13.45;79.79
9969;BME280;5025;48.890;9.278;2023-05-16T12:28:04;98715.69;;;13.49;79.73
9969;BME280;5025;48.890;9.278;2023-05-16T12:30:31;98713.53;;;13.51;79.67
9969;BME280;5025;48.890;9.278;2023-05-16T12:32:58;98713.28;;;13.52;79.37
9969;BME280;5025;48.890;9.278;2023-05-16T12:35:31;98716.59;;;13.54;79.43
9969;BME280;5025;48.890;9.278;2023-05-16T12:37:57;98708.19;;;13.56;79.20
9969;BME280;5025;48.890;9.278;2023-05-16T12:40:23;98717.22;;;13.61;79.15
9969;BME280;5025;48.890;9.278;2023-05-16T12:42:55;98716.47;;;13.66;79.10
9969;BME280;5025;48.890;9.278;2023-05-16T12:45:20;98716.56;;;13.71;78.88
9969;BME280;5025;48.890;9.278;2023-05-16T12:47:46;98722.84;;;13.77;78.92
9969;BME280;5025;48.890;9.278;2023-05-16T12:50:12;98717.75;;;13.80;78.83
9969;BME280;5025;48.890;9.278;2023-05-16T12:52:53;98720.53;;;13.86;78.64
9969;BME280;5025;48.890;9.278;2023-05-16T12:55:22;98729.81;;;13.90;78.42
9969;BME280;5025;48.890;9.278;2023-05-16T12:57:48;98722.25;;;13.92;78.23
9969;BME280;5025;48.890;9.278;2023-05-16T13:00:16;98728.72;;;13.91;78.04
9969;BME280;5025;48.890;9.278;2023-05-16T13:02:43;98731.09;;;13.82;77.88
9969;BME280;5025;48.890;9.278;2023-05-16T13:05:09;98735.59;;;13.76;77.67
9969;BME280;5025;48.890;9.278;2023-05-16T13:07:34;98732.00;;;13.71;77.53
9969;BME280;5025;48.890;9.278;2023-05-16T13:10:00;98740.97;;;13.71;77.30
9969;BME280;5025;48.890;9.278;2023-05-16T13:12:25;98744.75;;;13.70;77.08
9969;BME280;5025;48.890;9.278;2023-05-16T13:14:52;98736.63;;;13.70;77.02
9969;BME280;5025;48.890;9.278;2023-05-16T13:17:17;98736.63;;;13.70;77.24
9969;BME280;5025;48.890;9.278;2023-05-16T13:19:42;98737.13;;;13.67;76.94
9969;BME280;5025;48.890;9.278;2023-05-16T13:22:07;98740.31;;;13.64;76.44
9969;BME280;5025;48.890;9.278;2023-05-16T13:24:33;98751.75;;;13.66;76.42
9969;BME280;5025;48.890;9.278;2023-05-16T13:26:58;98747.97;;;13.67;76.42
9969;BME280;5025;48.890;9.278;2023-05-16T13:29:23;98747.97;;;13.67;76.13
9969;BME280;5025;48.890;9.278;2023-05-16T13:31:49;98751.75;;;13.66;75.92
9969;BME280;5025;48.890;9.278;2023-05-16T13:34:14;98765.31;;;13.66;75.80